Главная страница
METAR-TAF:

METAR-TAF

Аэропорты :

Батуми, Грузия

широта: 41-36-37N, долгота: 041-35-58E, высота над уровнем моря: 32 м

Текущие метеонаблюдения

Эта сводка был подготовлена 29 минут назад, в 06:30 UTC
Ветер 7 Узел от западный-юго-западный
Температура 24°C
Влажность 78%
Давление 1013 hPa
Видимость 10 км и более
небольшая облачность на высоте 2300 фута

METAR: UGSB 270630Z 25007KT 9999 FEW023 24/20 Q1013 R13/70D NOSIG

Время: 10:59 (06:59 UTC)

Прогноз

Эта сводка был подготовлена 1 час и 59 минут назад, в 05:00 UTC
Прогноз действительный с 27-го 06 UTC до 28-го 06 UTC
Ветер 3 Узел переменных направлений
Видимость 10 км и более
Нет облачности ниже 1500 м, и нет кучево-дождевой облачности
изменения
С 27-го 18 UTC до 27-го 21 UTC
Ветер 10 Узел от юго-восточный
Видимость 10 км и более
небольшая облачность на высоте 3500 фута
Отдельные облака на высоте 8000 фута

TAF: UGSB 270500Z 2706/2806 VRB03KT CAVOK TX25/2712Z TN19/2723Z BECMG 2718/2721 13010KT 9999 FEW035 SCT080

Метеонаблюдения и прогнозы для более 4000 аэропортов (сводки METAR и TAF).

Имеющиеся станции представлены на карте желтыми и красными точками.

Чтобы увидеть название станции, наведите на нее мышь.

Затем щелкните, чтобы увидеть метеонаблюдения и метеопрогнозы.

Управление картой: чтобы увеличить масштаб, щелкните зеленые кнопки с черным крестиком; чтобы уменьшить масштаб, щелкните зеленую кнопку с тире; для просмотра соседних карт щелкайте зеленые стрелки.


METAR-TAF: